sensor_id;sensor_type;location;lat;lon;timestamp;P1;durP1;ratioP1;P2;durP2;ratioP2
63945;SDS011;50122;56.330;43.838;2023-01-24T00:00:47;38.33;;;14.80;;
63945;SDS011;50122;56.330;43.838;2023-01-24T00:03:13;46.75;;;15.45;;
63945;SDS011;50122;56.330;43.838;2023-01-24T00:05:41;54.08;;;18.10;;
63945;SDS011;50122;56.330;43.838;2023-01-24T00:08:08;68.43;;;17.77;;
63945;SDS011;50122;56.330;43.838;2023-01-24T00:10:35;52.42;;;16.48;;
63945;SDS011;50122;56.330;43.838;2023-01-24T00:13:02;54.88;;;15.35;;
63945;SDS011;50122;56.330;43.838;2023-01-24T00:15:29;65.90;;;14.75;;
63945;SDS011;50122;56.330;43.838;2023-01-24T00:17:55;46.25;;;13.77;;
63945;SDS011;50122;56.330;43.838;2023-01-24T00:20:22;52.28;;;15.13;;
63945;SDS011;50122;56.330;43.838;2023-01-24T00:22:48;52.58;;;15.52;;
63945;SDS011;50122;56.330;43.838;2023-01-24T00:25:15;46.63;;;14.52;;
63945;SDS011;50122;56.330;43.838;2023-01-24T00:27:41;32.75;;;14.50;;
63945;SDS011;50122;56.330;43.838;2023-01-24T00:30:08;34.80;;;14.38;;
63945;SDS011;50122;56.330;43.838;2023-01-24T00:32:36;34.08;;;14.40;;
63945;SDS011;50122;56.330;43.838;2023-01-24T00:35:03;35.53;;;15.35;;
63945;SDS011;50122;56.330;43.838;2023-01-24T00:37:29;36.05;;;15.70;;
63945;SDS011;50122;56.330;43.838;2023-01-24T00:39:56;32.53;;;14.32;;
63945;SDS011;50122;56.330;43.838;2023-01-24T00:42:22;32.42;;;13.88;;
63945;SDS011;50122;56.330;43.838;2023-01-24T00:44:50;32.13;;;13.73;;
63945;SDS011;50122;56.330;43.838;2023-01-24T00:47:16;33.25;;;14.13;;
63945;SDS011;50122;56.330;43.838;2023-01-24T00:49:43;34.03;;;15.32;;
63945;SDS011;50122;56.330;43.838;2023-01-24T00:52:09;31.63;;;15.00;;
63945;SDS011;50122;56.330;43.838;2023-01-24T00:54:36;32.33;;;14.65;;
63945;SDS011;50122;56.330;43.838;2023-01-24T00:57:02;31.48;;;15.15;;
63945;SDS011;50122;56.330;43.838;2023-01-24T00:59:29;37.25;;;14.05;;
63945;SDS011;50122;56.330;43.838;2023-01-24T01:01:55;32.53;;;12.93;;
63945;SDS011;50122;56.330;43.838;2023-01-24T01:04:22;26.77;;;12.35;;
63945;SDS011;50122;56.330;43.838;2023-01-24T01:06:48;23.50;;;11.73;;
63945;SDS011;50122;56.330;43.838;2023-01-24T01:09:15;26.60;;;12.23;;
63945;SDS011;50122;56.330;43.838;2023-01-24T01:11:41;32.58;;;13.00;;
63945;SDS011;50122;56.330;43.838;2023-01-24T01:14:08;24.90;;;11.45;;
63945;SDS011;50122;56.330;43.838;2023-01-24T01:16:35;24.90;;;11.55;;
63945;SDS011;50122;56.330;43.838;2023-01-24T01:19:05;24.42;;;11.75;;
63945;SDS011;50122;56.330;43.838;2023-01-24T01:21:33;23.15;;;11.23;;
63945;SDS011;50122;56.330;43.838;2023-01-24T01:24:00;24.50;;;10.98;;
63945;SDS011;50122;56.330;43.838;2023-01-24T01:26:27;22.42;;;10.82;;
63945;SDS011;50122;56.330;43.838;2023-01-24T01:28:54;19.25;;;9.73;;
63945;SDS011;50122;56.330;43.838;2023-01-24T01:31:20;19.20;;;9.50;;
63945;SDS011;50122;56.330;43.838;2023-01-24T01:33:47;22.52;;;10.35;;
63945;SDS011;50122;56.330;43.838;2023-01-24T01:36:14;25.80;;;12.95;;
63945;SDS011;50122;56.330;43.838;2023-01-24T01:38:40;25.15;;;12.15;;
63945;SDS011;50122;56.330;43.838;2023-01-24T01:41:07;27.55;;;11.82;;
63945;SDS011;50122;56.330;43.838;2023-01-24T01:43:34;26.02;;;11.73;;
63945;SDS011;50122;56.330;43.838;2023-01-24T01:46:19;21.85;;;11.48;;
63945;SDS011;50122;56.330;43.838;2023-01-24T01:51:15;19.17;;;9.90;;
63945;SDS011;50122;56.330;43.838;2023-01-24T01:53:45;19.77;;;9.52;;
63945;SDS011;50122;56.330;43.838;2023-01-24T01:56:20;21.20;;;9.90;;
63945;SDS011;50122;56.330;43.838;2023-01-24T01:58:47;20.42;;;9.98;;
63945;SDS011;50122;56.330;43.838;2023-01-24T02:01:14;20.50;;;9.60;;
63945;SDS011;50122;56.330;43.838;2023-01-24T02:03:46;23.92;;;10.60;;
63945;SDS011;50122;56.330;43.838;2023-01-24T02:06:18;25.80;;;10.98;;
63945;SDS011;50122;56.330;43.838;2023-01-24T02:08:48;26.60;;;11.75;;
63945;SDS011;50122;56.330;43.838;2023-01-24T02:11:15;19.63;;;9.77;;
63945;SDS011;50122;56.330;43.838;2023-01-24T02:14:00;25.83;;;11.50;;
63945;SDS011;50122;56.330;43.838;2023-01-24T02:16:45;33.72;;;15.48;;
63945;SDS011;50122;56.330;43.838;2023-01-24T02:22:03;25.33;;;11.77;;
63945;SDS011;50122;56.330;43.838;2023-01-24T02:24:36;26.10;;;11.48;;
63945;SDS011;50122;56.330;43.838;2023-01-24T02:27:03;26.42;;;11.23;;
63945;SDS011;50122;56.330;43.838;2023-01-24T02:29:29;35.90;;;13.70;;
63945;SDS011;50122;56.330;43.838;2023-01-24T02:31:57;40.00;;;14.65;;
63945;SDS011;50122;56.330;43.838;2023-01-24T02:34:26;36.05;;;15.13;;
63945;SDS011;50122;56.330;43.838;2023-01-24T02:37:00;45.45;;;16.77;;
63945;SDS011;50122;56.330;43.838;2023-01-24T02:39:31;36.63;;;14.82;;
63945;SDS011;50122;56.330;43.838;2023-01-24T02:42:20;39.22;;;16.70;;
63945;SDS011;50122;56.330;43.838;2023-01-24T02:44:48;37.10;;;18.35;;
63945;SDS011;50122;56.330;43.838;2023-01-24T02:47:17;46.95;;;20.38;;
63945;SDS011;50122;56.330;43.838;2023-01-24T02:49:44;40.00;;;18.52;;
63945;SDS011;50122;56.330;43.838;2023-01-24T02:52:11;44.40;;;18.67;;
63945;SDS011;50122;56.330;43.838;2023-01-24T02:54:56;42.53;;;19.10;;
63945;SDS011;50122;56.330;43.838;2023-01-24T02:57:23;35.47;;;16.73;;
63945;SDS011;50122;56.330;43.838;2023-01-24T03:00:08;35.35;;;16.45;;
63945;SDS011;50122;56.330;43.838;2023-01-24T03:02:35;39.53;;;17.33;;
63945;SDS011;50122;56.330;43.838;2023-01-24T03:05:01;36.92;;;17.42;;
63945;SDS011;50122;56.330;43.838;2023-01-24T03:07:28;33.35;;;15.13;;
63945;SDS011;50122;56.330;43.838;2023-01-24T03:10:08;36.35;;;17.05;;
63945;SDS011;50122;56.330;43.838;2023-01-24T03:12:35;45.20;;;18.83;;
63945;SDS011;50122;56.330;43.838;2023-01-24T03:15:21;57.75;;;22.55;;
63945;SDS011;50122;56.330;43.838;2023-01-24T03:18:05;52.28;;;20.60;;
63945;SDS011;50122;56.330;43.838;2023-01-24T03:20:53;42.40;;;16.60;;
63945;SDS011;50122;56.330;43.838;2023-01-24T03:23:38;37.20;;;15.38;;
63945;SDS011;50122;56.330;43.838;2023-01-24T03:26:24;45.13;;;18.77;;
63945;SDS011;50122;56.330;43.838;2023-01-24T03:29:09;124.05;;;41.05;;
63945;SDS011;50122;56.330;43.838;2023-01-24T03:31:58;111.70;;;39.13;;
63945;SDS011;50122;56.330;43.838;2023-01-24T03:34:43;83.22;;;29.40;;
63945;SDS011;50122;56.330;43.838;2023-01-24T03:37:18;59.15;;;23.65;;
63945;SDS011;50122;56.330;43.838;2023-01-24T03:40:07;58.83;;;22.98;;
63945;SDS011;50122;56.330;43.838;2023-01-24T03:42:34;54.30;;;23.10;;
63945;SDS011;50122;56.330;43.838;2023-01-24T03:45:01;39.10;;;16.60;;
63945;SDS011;50122;56.330;43.838;2023-01-24T03:47:27;48.05;;;21.98;;
63945;SDS011;50122;56.330;43.838;2023-01-24T03:49:54;53.35;;;22.67;;
63945;SDS011;50122;56.330;43.838;2023-01-24T03:52:39;54.83;;;25.80;;
63945;SDS011;50122;56.330;43.838;2023-01-24T03:55:06;51.47;;;23.60;;
63945;SDS011;50122;56.330;43.838;2023-01-24T03:57:34;45.33;;;21.50;;
63945;SDS011;50122;56.330;43.838;2023-01-24T04:00:00;39.70;;;19.70;;
63945;SDS011;50122;56.330;43.838;2023-01-24T04:02:28;32.15;;;14.43;;
63945;SDS011;50122;56.330;43.838;2023-01-24T04:04:55;31.08;;;13.05;;
63945;SDS011;50122;56.330;43.838;2023-01-24T04:07:40;29.33;;;13.85;;
63945;SDS011;50122;56.330;43.838;2023-01-24T04:10:07;30.60;;;14.32;;
63945;SDS011;50122;56.330;43.838;2023-01-24T04:12:33;32.60;;;14.43;;
63945;SDS011;50122;56.330;43.838;2023-01-24T04:15:00;42.55;;;16.50;;
63945;SDS011;50122;56.330;43.838;2023-01-24T04:17:26;31.42;;;14.68;;
63945;SDS011;50122;56.330;43.838;2023-01-24T04:19:53;35.40;;;17.77;;
63945;SDS011;50122;56.330;43.838;2023-01-24T04:22:20;54.00;;;23.67;;
63945;SDS011;50122;56.330;43.838;2023-01-24T04:24:46;59.00;;;29.77;;
63945;SDS011;50122;56.330;43.838;2023-01-24T04:27:13;76.47;;;36.67;;
63945;SDS011;50122;56.330;43.838;2023-01-24T04:29:40;72.63;;;37.08;;
63945;SDS011;50122;56.330;43.838;2023-01-24T04:32:08;91.25;;;41.35;;
63945;SDS011;50122;56.330;43.838;2023-01-24T04:34:35;74.13;;;37.22;;
63945;SDS011;50122;56.330;43.838;2023-01-24T04:37:02;66.80;;;36.22;;
63945;SDS011;50122;56.330;43.838;2023-01-24T04:39:29;68.22;;;30.92;;
63945;SDS011;50122;56.330;43.838;2023-01-24T04:41:55;59.28;;;29.88;;
63945;SDS011;50122;56.330;43.838;2023-01-24T04:44:22;74.28;;;31.02;;
63945;SDS011;50122;56.330;43.838;2023-01-24T04:46:48;75.20;;;32.22;;
63945;SDS011;50122;56.330;43.838;2023-01-24T04:49:15;65.50;;;28.88;;
63945;SDS011;50122;56.330;43.838;2023-01-24T04:51:42;73.50;;;31.75;;
63945;SDS011;50122;56.330;43.838;2023-01-24T04:54:09;90.03;;;34.95;;
63945;SDS011;50122;56.330;43.838;2023-01-24T04:56:36;96.78;;;37.25;;
63945;SDS011;50122;56.330;43.838;2023-01-24T04:59:05;120.53;;;41.35;;
63945;SDS011;50122;56.330;43.838;2023-01-24T05:01:31;138.52;;;48.63;;
63945;SDS011;50122;56.330;43.838;2023-01-24T05:03:58;138.90;;;51.50;;
63945;SDS011;50122;56.330;43.838;2023-01-24T05:06:29;145.93;;;52.97;;
63945;SDS011;50122;56.330;43.838;2023-01-24T05:08:56;126.53;;;47.83;;
63945;SDS011;50122;56.330;43.838;2023-01-24T05:11:22;98.88;;;38.30;;
63945;SDS011;50122;56.330;43.838;2023-01-24T05:13:49;84.65;;;33.88;;
63945;SDS011;50122;56.330;43.838;2023-01-24T05:16:25;68.82;;;29.30;;
63945;SDS011;50122;56.330;43.838;2023-01-24T05:18:51;67.97;;;25.45;;
63945;SDS011;50122;56.330;43.838;2023-01-24T05:21:18;52.20;;;23.58;;
63945;SDS011;50122;56.330;43.838;2023-01-24T05:23:51;46.63;;;19.80;;
63945;SDS011;50122;56.330;43.838;2023-01-24T05:26:19;55.92;;;24.55;;
63945;SDS011;50122;56.330;43.838;2023-01-24T05:28:46;72.38;;;30.00;;
63945;SDS011;50122;56.330;43.838;2023-01-24T05:31:12;55.53;;;26.77;;
63945;SDS011;50122;56.330;43.838;2023-01-24T05:33:41;67.95;;;28.50;;
63945;SDS011;50122;56.330;43.838;2023-01-24T05:36:09;83.78;;;34.97;;
63945;SDS011;50122;56.330;43.838;2023-01-24T18:08:11;33.45;;;13.43;;
63945;SDS011;50122;56.330;43.838;2023-01-24T18:10:37;30.25;;;11.98;;
63945;SDS011;50122;56.330;43.838;2023-01-24T18:13:12;29.40;;;11.63;;
63945;SDS011;50122;56.330;43.838;2023-01-24T18:15:41;30.17;;;14.35;;
63945;SDS011;50122;56.330;43.838;2023-01-24T18:18:13;32.72;;;14.93;;
63945;SDS011;50122;56.330;43.838;2023-01-24T18:20:40;38.83;;;16.35;;
63945;SDS011;50122;56.330;43.838;2023-01-24T18:23:08;31.23;;;14.50;;
63945;SDS011;50122;56.330;43.838;2023-01-24T18:25:35;29.30;;;13.52;;
63945;SDS011;50122;56.330;43.838;2023-01-24T18:28:04;23.88;;;11.55;;
63945;SDS011;50122;56.330;43.838;2023-01-24T18:30:34;36.17;;;14.20;;
63945;SDS011;50122;56.330;43.838;2023-01-24T18:33:00;30.55;;;12.75;;
63945;SDS011;50122;56.330;43.838;2023-01-24T18:35:34;31.05;;;14.30;;
63945;SDS011;50122;56.330;43.838;2023-01-24T18:39:01;29.88;;;10.93;;
63945;SDS011;50122;56.330;43.838;2023-01-24T18:41:28;28.83;;;12.75;;
63945;SDS011;50122;56.330;43.838;2023-01-24T18:43:58;28.48;;;13.15;;
63945;SDS011;50122;56.330;43.838;2023-01-24T18:46:31;33.03;;;14.38;;
63945;SDS011;50122;56.330;43.838;2023-01-24T18:51:51;30.67;;;12.57;;
63945;SDS011;50122;56.330;43.838;2023-01-24T18:54:19;28.00;;;13.13;;
63945;SDS011;50122;56.330;43.838;2023-01-24T18:56:48;32.42;;;14.27;;
63945;SDS011;50122;56.330;43.838;2023-01-24T18:59:19;31.67;;;13.55;;
63945;SDS011;50122;56.330;43.838;2023-01-24T19:01:49;31.15;;;14.30;;
63945;SDS011;50122;56.330;43.838;2023-01-24T19:04:15;25.10;;;11.32;;
63945;SDS011;50122;56.330;43.838;2023-01-24T19:06:44;32.35;;;14.43;;
63945;SDS011;50122;56.330;43.838;2023-01-24T19:09:14;33.17;;;14.98;;
63945;SDS011;50122;56.330;43.838;2023-01-24T19:11:40;29.05;;;13.50;;
63945;SDS011;50122;56.330;43.838;2023-01-24T19:14:08;28.85;;;14.13;;
63945;SDS011;50122;56.330;43.838;2023-01-24T19:16:39;31.73;;;14.27;;
63945;SDS011;50122;56.330;43.838;2023-01-24T19:19:12;33.85;;;15.70;;
63945;SDS011;50122;56.330;43.838;2023-01-24T19:21:48;33.55;;;14.80;;
63945;SDS011;50122;56.330;43.838;2023-01-24T19:24:16;33.95;;;14.88;;
63945;SDS011;50122;56.330;43.838;2023-01-24T19:26:44;35.70;;;15.43;;
63945;SDS011;50122;56.330;43.838;2023-01-24T19:29:12;30.80;;;14.95;;
63945;SDS011;50122;56.330;43.838;2023-01-24T19:31:39;39.38;;;15.82;;
63945;SDS011;50122;56.330;43.838;2023-01-24T19:34:06;32.47;;;15.90;;
63945;SDS011;50122;56.330;43.838;2023-01-24T19:36:34;36.30;;;16.38;;
63945;SDS011;50122;56.330;43.838;2023-01-24T19:39:10;35.33;;;16.13;;
63945;SDS011;50122;56.330;43.838;2023-01-24T19:41:38;30.13;;;14.43;;
63945;SDS011;50122;56.330;43.838;2023-01-24T19:44:05;32.10;;;14.30;;
63945;SDS011;50122;56.330;43.838;2023-01-24T19:46:46;31.77;;;14.65;;
63945;SDS011;50122;56.330;43.838;2023-01-24T19:49:14;33.17;;;13.95;;
63945;SDS011;50122;56.330;43.838;2023-01-24T19:51:41;33.33;;;14.77;;
63945;SDS011;50122;56.330;43.838;2023-01-24T19:54:08;37.53;;;14.63;;
63945;SDS011;50122;56.330;43.838;2023-01-24T19:56:37;35.88;;;15.45;;
63945;SDS011;50122;56.330;43.838;2023-01-24T19:59:04;33.63;;;15.27;;
63945;SDS011;50122;56.330;43.838;2023-01-24T20:01:33;33.17;;;15.50;;
63945;SDS011;50122;56.330;43.838;2023-01-24T20:04:00;34.15;;;15.35;;
63945;SDS011;50122;56.330;43.838;2023-01-24T20:06:49;35.97;;;17.83;;
63945;SDS011;50122;56.330;43.838;2023-01-24T20:09:17;31.83;;;15.40;;
63945;SDS011;50122;56.330;43.838;2023-01-24T20:11:45;37.83;;;15.60;;
63945;SDS011;50122;56.330;43.838;2023-01-24T20:14:12;34.05;;;16.35;;
63945;SDS011;50122;56.330;43.838;2023-01-24T20:16:38;34.05;;;16.38;;
63945;SDS011;50122;56.330;43.838;2023-01-24T20:19:05;35.25;;;16.13;;
63945;SDS011;50122;56.330;43.838;2023-01-24T20:21:40;31.90;;;14.70;;
63945;SDS011;50122;56.330;43.838;2023-01-24T20:24:08;34.85;;;14.73;;
63945;SDS011;50122;56.330;43.838;2023-01-24T20:26:36;34.55;;;15.68;;
63945;SDS011;50122;56.330;43.838;2023-01-24T20:29:03;33.05;;;15.23;;
63945;SDS011;50122;56.330;43.838;2023-01-24T20:31:30;18.00;;;7.45;;
63945;SDS011;50122;56.330;43.838;2023-01-24T20:33:56;27.98;;;11.68;;
63945;SDS011;50122;56.330;43.838;2023-01-24T20:36:23;31.52;;;13.52;;
63945;SDS011;50122;56.330;43.838;2023-01-24T20:38:53;27.85;;;13.52;;
63945;SDS011;50122;56.330;43.838;2023-01-24T20:41:21;28.73;;;13.68;;
63945;SDS011;50122;56.330;43.838;2023-01-24T20:43:48;27.75;;;12.85;;
63945;SDS011;50122;56.330;43.838;2023-01-24T20:46:21;29.90;;;12.57;;
63945;SDS011;50122;56.330;43.838;2023-01-24T20:48:49;35.78;;;14.55;;
63945;SDS011;50122;56.330;43.838;2023-01-24T20:51:19;30.63;;;13.95;;
63945;SDS011;50122;56.330;43.838;2023-01-24T20:53:47;27.50;;;13.15;;
63945;SDS011;50122;56.330;43.838;2023-01-24T20:56:14;26.08;;;13.18;;
63945;SDS011;50122;56.330;43.838;2023-01-24T20:58:52;27.90;;;13.75;;
63945;SDS011;50122;56.330;43.838;2023-01-24T21:01:21;26.50;;;13.65;;
63945;SDS011;50122;56.330;43.838;2023-01-24T21:03:50;30.30;;;13.38;;
63945;SDS011;50122;56.330;43.838;2023-01-24T21:06:18;25.73;;;12.88;;
63945;SDS011;50122;56.330;43.838;2023-01-24T21:08:46;28.65;;;13.52;;
63945;SDS011;50122;56.330;43.838;2023-01-24T21:11:15;23.75;;;10.50;;
63945;SDS011;50122;56.330;43.838;2023-01-24T21:13:44;31.48;;;13.77;;
63945;SDS011;50122;56.330;43.838;2023-01-24T21:16:16;26.05;;;12.23;;
63945;SDS011;50122;56.330;43.838;2023-01-24T21:18:46;27.20;;;13.13;;
63945;SDS011;50122;56.330;43.838;2023-01-24T21:21:15;30.70;;;13.65;;
63945;SDS011;50122;56.330;43.838;2023-01-24T21:23:43;29.15;;;14.10;;
63945;SDS011;50122;56.330;43.838;2023-01-24T21:26:10;27.65;;;13.02;;
63945;SDS011;50122;56.330;43.838;2023-01-24T21:28:37;29.08;;;14.75;;
63945;SDS011;50122;56.330;43.838;2023-01-24T21:31:05;28.63;;;13.30;;
63945;SDS011;50122;56.330;43.838;2023-01-24T21:33:33;31.63;;;14.38;;
63945;SDS011;50122;56.330;43.838;2023-01-24T21:36:07;29.77;;;13.30;;
63945;SDS011;50122;56.330;43.838;2023-01-24T21:38:38;28.52;;;14.32;;
63945;SDS011;50122;56.330;43.838;2023-01-24T21:41:05;29.75;;;14.70;;
63945;SDS011;50122;56.330;43.838;2023-01-24T21:43:54;28.40;;;13.77;;
63945;SDS011;50122;56.330;43.838;2023-01-24T21:46:20;30.08;;;13.80;;
63945;SDS011;50122;56.330;43.838;2023-01-24T21:48:47;27.10;;;12.52;;
63945;SDS011;50122;56.330;43.838;2023-01-24T21:51:34;29.55;;;14.18;;
63945;SDS011;50122;56.330;43.838;2023-01-24T21:54:05;24.98;;;11.75;;
63945;SDS011;50122;56.330;43.838;2023-01-24T21:56:36;31.58;;;14.07;;
63945;SDS011;50122;56.330;43.838;2023-01-24T21:59:24;30.80;;;13.65;;
63945;SDS011;50122;56.330;43.838;2023-01-24T22:01:53;28.08;;;12.25;;
63945;SDS011;50122;56.330;43.838;2023-01-24T22:04:23;19.45;;;9.25;;
63945;SDS011;50122;56.330;43.838;2023-01-24T22:06:52;28.92;;;12.93;;
63945;SDS011;50122;56.330;43.838;2023-01-24T22:09:20;31.55;;;14.10;;
63945;SDS011;50122;56.330;43.838;2023-01-24T22:11:47;33.25;;;13.27;;
63945;SDS011;50122;56.330;43.838;2023-01-24T22:14:18;35.20;;;14.70;;
63945;SDS011;50122;56.330;43.838;2023-01-24T22:16:48;24.45;;;11.30;;
63945;SDS011;50122;56.330;43.838;2023-01-24T22:19:21;24.65;;;13.05;;
63945;SDS011;50122;56.330;43.838;2023-01-24T22:27:41;31.00;;;13.75;;
63945;SDS011;50122;56.330;43.838;2023-01-24T22:30:13;32.67;;;14.45;;
63945;SDS011;50122;56.330;43.838;2023-01-24T22:32:44;18.40;;;10.70;;
63945;SDS011;50122;56.330;43.838;2023-01-24T22:35:12;29.38;;;13.52;;
63945;SDS011;50122;56.330;43.838;2023-01-24T22:37:43;25.63;;;12.55;;
63945;SDS011;50122;56.330;43.838;2023-01-24T22:40:14;32.20;;;14.07;;
63945;SDS011;50122;56.330;43.838;2023-01-24T22:42:42;30.02;;;13.70;;
63945;SDS011;50122;56.330;43.838;2023-01-24T22:45:09;30.90;;;13.40;;
63945;SDS011;50122;56.330;43.838;2023-01-24T22:47:36;34.15;;;14.27;;
63945;SDS011;50122;56.330;43.838;2023-01-24T22:50:03;21.15;;;11.57;;
63945;SDS011;50122;56.330;43.838;2023-01-24T22:52:32;34.08;;;14.55;;
63945;SDS011;50122;56.330;43.838;2023-01-24T22:55:02;35.83;;;15.77;;
63945;SDS011;50122;56.330;43.838;2023-01-24T22:57:29;29.38;;;14.50;;
63945;SDS011;50122;56.330;43.838;2023-01-24T22:59:56;28.77;;;14.60;;
63945;SDS011;50122;56.330;43.838;2023-01-24T23:02:23;29.08;;;14.93;;
63945;SDS011;50122;56.330;43.838;2023-01-24T23:04:50;18.67;;;9.70;;
63945;SDS011;50122;56.330;43.838;2023-01-24T23:07:17;30.17;;;14.32;;
63945;SDS011;50122;56.330;43.838;2023-01-24T23:09:47;27.45;;;13.05;;
63945;SDS011;50122;56.330;43.838;2023-01-24T23:12:15;20.92;;;10.88;;
63945;SDS011;50122;56.330;43.838;2023-01-24T23:15:02;30.08;;;15.05;;
63945;SDS011;50122;56.330;43.838;2023-01-24T23:17:47;27.48;;;12.50;;
63945;SDS011;50122;56.330;43.838;2023-01-24T23:20:18;25.83;;;12.25;;
63945;SDS011;50122;56.330;43.838;2023-01-24T23:23:03;25.27;;;13.65;;
63945;SDS011;50122;56.330;43.838;2023-01-24T23:25:29;17.98;;;9.13;;
63945;SDS011;50122;56.330;43.838;2023-01-24T23:27:56;17.67;;;7.88;;
63945;SDS011;50122;56.330;43.838;2023-01-24T23:32:59;29.33;;;13.15;;
63945;SDS011;50122;56.330;43.838;2023-01-24T23:35:29;29.10;;;13.60;;
63945;SDS011;50122;56.330;43.838;2023-01-24T23:37:56;26.15;;;13.50;;
63945;SDS011;50122;56.330;43.838;2023-01-24T23:40:23;22.23;;;12.00;;
63945;SDS011;50122;56.330;43.838;2023-01-24T23:42:49;26.50;;;13.85;;
63945;SDS011;50122;56.330;43.838;2023-01-24T23:45:17;23.90;;;11.95;;
63945;SDS011;50122;56.330;43.838;2023-01-24T23:47:46;24.98;;;12.10;;
63945;SDS011;50122;56.330;43.838;2023-01-24T23:50:13;24.92;;;13.07;;
63945;SDS011;50122;56.330;43.838;2023-01-24T23:52:40;31.02;;;14.15;;
63945;SDS011;50122;56.330;43.838;2023-01-24T23:55:06;31.60;;;15.73;;
63945;SDS011;50122;56.330;43.838;2023-01-24T23:57:34;30.60;;;14.65;;
